CYQF

Details ICAO CYQF (YQF)
Name RED DEER REGIONAL
Region Canada
Timezone America/Edmonton (UTC-6.0)
Plans Departing 21
Arriving 21
Stats Elevation 2,968 ft / 905 m (AMSL)
Location 52.182568° -113.893686°
Runways 2
Magnetic Variation 14.186° E
Sunrise 2018-05-23 11:31:04 UTC / 2018-05-23 05:31:04 Local
Sunset 2018-05-24 03:36:30 UTC / 2018-05-23 21:36:30 Local
Advertisement - Login to hide

Runways

ID Width Length Bearing (true) Bearing (mag) Surface Threshold Offset Overrun Length
11 100 ft / 30 m 3,480 ft / 1,061 m 129.84° 115.65° Asphalt 0 ft / 0 m 0 ft / 0 m
16 98 ft / 30 m 5,575 ft / 1,699 m 180.00° 165.81° Asphalt 0 ft / 0 m 0 ft / 0 m
29 100 ft / 30 m 3,480 ft / 1,061 m 309.85° 295.66° Asphalt 0 ft / 0 m 0 ft / 0 m
34 98 ft / 30 m 5,575 ft / 1,699 m 0.00° 345.81° Asphalt 0 ft / 0 m 0 ft / 0 m

Map

Weather


0- 5 10 15 20 25 30 35+ Temperature / ° C

Clouds and Precipitation
Forecast for 2018-05-24 00:00 UTC. Updated 4 hours ago

Ground ~20,000 ft ~40,000 ft Winds

METAR

CYQF 240200Z 11010G15KT 15SM FEW080 FEW270 25/04 A2975 RMK CU1CI1 SLP072 DENSITY ALT 5000FT

TAF

TAF CYQF 232338Z 2400/2412 12012KT P6SM SCT090 BKN260 BECMG 2401/2403 14008KT FM240600 16006KT P6SM SCT100 TEMPO 2406/2412 P6SM VCSH BKN080 RMK NXT FCST BY 240600Z

Frequencies

Recorded 124.00 MHz ATIS
Tower 118.50 MHz MF RED DEER RDO
Warning: Do not use this data for real-world aviation or navigation. No guarantee of current accuracy is given.